Pagrindinis puslapis
METAR-TAF:

METAR-TAF

Oro uostai :

Mardin, Turkija

platuma: 37-13-58N, ilguma: 40-38-26E, Aukštis: 527 m

METAR: trūkstamas

Laikas: 02:34 (23:34 UTC)

Prognozė

Ataskaita buvo paskelbta 9 valandos ir 54 minutes, ne 13:40 UTC
Prognozė galioja nuo 05 metu 15 UTC su 05 metu 24 UTC
Vėjas 2 kt nuo kintamojo kryptimis
Matomumas 10 km arba daugiau
Mažai debesys ne aukštis 4000 ft
Išsisklaidę debesys ne aukštis 10000 ft
Su prošvaistėmis ne aukštis 20000 ft
Tapsmas
nuo 05 metu 15 UTC su 05 metu 18 UTC
Su prošvaistėmis ne aukštis 4000 ft
Su prošvaistėmis ne aukštis 10000 ft

TAF: LTCR 051340Z 0515/0524 VRB02KT 9999 FEW040 SCT100 BKN200 BECMG 0515/0518 BKN040 BKN100

Orai ataskaitas ir orų prognozės (METAR, TAF).

turimą stotys yra geltonos ir raudonos taškus žemėlapyje.

Perkelti pele per norėdami pamatyti stoties vardą.

Tada spustelėkite, norėdami matyti oro stebėjimo ir prognozės.

Norėdami pakeisti žemėlapį: spustelėkite ant žalios mygtukų su juodo kryžiaus žemyn,; žalią mygtuką su brūkšneliu, jei norite nutolinti; arba žalių rodyklių gretimoms žemėlapius.


METAR-TAF: